Time;durP1;ratioP1;P1;durP2;ratioP2;P2;SDS_P1;SDS_P2;PMS_P1;PMS_P2;Temp;Humidity;BMP_temperature;BMP_pressure;BME280_temperature;BME280_humidity;BME280_pressure;Samples;Min_cycle;Max_cycle;Signal;HPM_P1;HPM_P2
2023/12/05 00:03:35;;;;;;;25.63;14.65;;;;;;;5.50;100.00;98887.13;8251789;28;20096;-55
2023/12/05 00:07:35;;;;;;;30.25;15.32;;;;;;;5.54;100.00;98888.50;8253458;28;20774;-53
2023/12/05 00:11:39;;;;;;;25.38;14.93;;;;;;;5.52;100.00;98885.16;8250574;28;20092;-55
2023/12/05 00:15:39;;;;;;;28.40;14.93;;;;;;;5.63;100.00;98890.28;8299725;28;20046;-57
2023/12/05 00:19:40;;;;;;;28.02;15.23;;;;;;;5.57;100.00;98874.81;8308594;28;20347;-57
2023/12/05 00:23:41;;;;;;;27.42;14.48;;;;;;;5.60;100.00;98861.09;8305564;28;20133;-57
2023/12/05 00:27:41;;;;;;;28.08;15.98;;;;;;;5.57;100.00;98861.41;8263531;28;20104;-55
2023/12/05 00:31:42;;;;;;;27.08;14.38;;;;;;;5.59;100.00;98870.16;8275506;28;20045;-53
2023/12/05 00:35:42;;;;;;;29.35;15.73;;;;;;;5.64;100.00;98867.84;8255261;28;20041;-54
2023/12/05 00:39:43;;;;;;;29.77;14.60;;;;;;;5.73;100.00;98858.91;8254732;28;20060;-56
2023/12/05 00:43:44;;;;;;;26.42;14.75;;;;;;;5.76;100.00;98862.13;8256494;28;20485;-54
2023/12/05 00:47:44;;;;;;;29.33;15.82;;;;;;;5.67;100.00;98872.91;8288567;28;20048;-58
2023/12/05 00:51:44;;;;;;;27.90;15.50;;;;;;;5.68;100.00;98875.44;8311296;28;20048;-59
2023/12/05 00:55:45;;;;;;;28.88;15.30;;;;;;;5.62;100.00;98864.50;8294574;28;20182;-56
2023/12/05 00:59:45;;;;;;;28.77;15.20;;;;;;;5.69;100.00;98868.25;8254650;28;20048;-54
2023/12/05 01:03:46;;;;;;;30.90;15.45;;;;;;;5.71;100.00;98868.94;8254669;28;20050;-54
2023/12/05 01:07:46;;;;;;;26.38;13.88;;;;;;;5.74;100.00;98871.34;8256450;28;20114;-56
2023/12/05 01:11:47;;;;;;;27.23;13.60;;;;;;;5.76;100.00;98866.63;8251866;28;20040;-55
2023/12/05 01:15:47;;;;;;;24.70;13.93;;;;;;;5.73;100.00;98870.47;8245220;28;20286;-57
2023/12/05 01:19:48;;;;;;;30.33;14.55;;;;;;;5.74;100.00;98865.97;8209345;28;20477;-57
2023/12/05 01:23:48;;;;;;;26.25;14.50;;;;;;;5.80;100.00;98862.69;8218914;28;20045;-56
2023/12/05 01:27:58;;;;;;;24.90;14.27;;;;;;;5.80;100.00;98857.31;8253768;28;20747;-56
2023/12/05 01:31:59;;;;;;;28.77;14.32;;;;;;;5.88;100.00;98857.41;8255683;28;20423;-57
2023/12/05 01:35:59;;;;;;;24.73;13.55;;;;;;;5.91;100.00;98870.53;8254604;28;20251;-55
2023/12/05 01:39:59;;;;;;;25.05;13.63;;;;;;;5.94;100.00;98859.50;8252143;28;20037;-55
2023/12/05 01:44:00;;;;;;;24.77;14.02;;;;;;;5.96;100.00;98852.16;8266494;28;20389;-57
2023/12/05 01:48:02;;;;;;;30.95;14.82;;;;;;;6.01;100.00;98849.88;8311603;28;20060;-56
2023/12/05 01:52:03;;;;;;;27.10;14.70;;;;;;;6.02;100.00;98843.50;8308680;28;20041;-56
2023/12/05 01:56:04;;;;;;;26.05;14.32;;;;;;;6.00;100.00;98848.16;8306774;28;20049;-56
2023/12/05 02:00:06;;;;;;;29.02;14.82;;;;;;;5.99;100.00;98843.81;8307851;28;20045;-57
2023/12/05 02:04:16;;;;;;;30.55;14.80;;;;;;;5.99;100.00;98835.75;8309133;28;20033;-56
2023/12/05 02:08:19;;;;;;;27.95;14.85;;;;;;;5.99;100.00;98841.13;8308173;28;20147;-56
2023/12/05 02:12:19;;;;;;;28.10;15.02;;;;;;;5.99;100.00;98838.44;8309091;28;20585;-55
2023/12/05 02:16:34;;;;;;;29.00;13.95;;;;;;;6.05;100.00;98835.16;8307771;28;20509;-56
2023/12/05 02:20:52;;;;;;;28.30;14.90;;;;;;;6.18;100.00;98845.47;8307885;28;20363;-56
2023/12/05 02:25:11;;;;;;;24.15;13.35;;;;;;;6.15;100.00;98835.91;8281818;28;20059;-57
2023/12/05 02:29:12;;;;;;;23.80;13.75;;;;;;;6.14;100.00;98836.91;8253238;28;20042;-58
2023/12/05 02:33:12;;;;;;;26.25;13.63;;;;;;;6.15;100.00;98838.59;8253881;28;20033;-57
2023/12/05 02:37:22;;;;;;;25.85;13.90;;;;;;;6.19;100.00;98823.84;8252345;28;20042;-57
2023/12/05 02:41:28;;;;;;;23.05;12.68;;;;;;;6.27;100.00;98829.31;8250198;28;20250;-54
2023/12/05 02:45:30;;;;;;;24.95;12.35;;;;;;;6.29;100.00;98826.47;8223398;28;20442;-57
2023/12/05 02:49:31;;;;;;;25.35;13.30;;;;;;;6.28;100.00;98814.88;8207402;28;20174;-58
2023/12/05 02:53:32;;;;;;;19.92;11.43;;;;;;;6.28;100.00;98825.63;8231530;28;20299;-57
2023/12/05 02:57:32;;;;;;;23.63;12.63;;;;;;;6.34;100.00;98825.00;8252209;28;20046;-57
2023/12/05 03:01:38;;;;;;;21.02;11.55;;;;;;;6.37;100.00;98813.13;8253474;28;20548;-56
2023/12/05 03:05:39;;;;;;;22.60;11.52;;;;;;;6.37;100.00;98819.31;8250735;28;20051;-56
2023/12/05 03:09:39;;;;;;;23.73;12.07;;;;;;;6.38;100.00;98821.03;8253447;28;20042;-56
2023/12/05 03:13:40;;;;;;;22.23;11.57;;;;;;;6.36;100.00;98825.69;8287084;28;20042;-53
2023/12/05 03:17:40;;;;;;;22.58;12.45;;;;;;;6.38;100.00;98823.72;8307744;28;20462;-53
2023/12/05 03:21:41;;;;;;;25.13;12.80;;;;;;;6.40;100.00;98829.75;8306242;28;20035;-54
2023/12/05 03:25:41;;;;;;;22.67;12.23;;;;;;;6.42;100.00;98811.66;8303741;28;20042;-53
2023/12/05 03:29:42;;;;;;;22.27;11.88;;;;;;;6.42;100.00;98806.28;8305381;28;20042;-53
2023/12/05 03:33:42;;;;;;;21.40;11.30;;;;;;;6.46;100.00;98813.03;8305904;28;20491;-55
2023/12/05 03:37:43;;;;;;;19.70;11.75;;;;;;;6.45;100.00;98810.50;8307870;28;20534;-56
2023/12/05 03:41:46;;;;;;;21.65;11.02;;;;;;;6.53;100.00;98815.94;8306855;28;20037;-56
2023/12/05 03:45:46;;;;;;;21.73;10.88;;;;;;;6.61;100.00;98810.59;8306426;28;22744;-55
2023/12/05 03:49:47;;;;;;;19.52;11.07;;;;;;;6.69;100.00;98811.53;8307489;28;20033;-54
2023/12/05 03:53:48;;;;;;;20.48;10.45;;;;;;;6.73;100.00;98809.34;8271009;28;20065;-55
2023/12/05 03:57:48;;;;;;;18.38;10.60;;;;;;;6.69;100.00;98816.88;8251855;28;20040;-55
2023/12/05 04:01:48;;;;;;;18.17;10.43;;;;;;;6.82;100.00;98819.97;8251818;28;20365;-55
2023/12/05 04:05:49;;;;;;;19.95;11.18;;;;;;;6.80;100.00;98824.66;8253267;28;20038;-55
2023/12/05 04:09:49;;;;;;;17.08;9.05;;;;;;;6.92;100.00;98827.94;8250259;28;20274;-55
2023/12/05 04:13:50;;;;;;;19.42;9.93;;;;;;;6.93;100.00;98825.09;8251212;28;20096;-53
2023/12/05 04:17:50;;;;;;;16.65;9.13;;;;;;;6.93;100.00;98833.16;8218931;28;20234;-55
2023/12/05 04:21:50;;;;;;;16.27;9.40;;;;;;;6.99;100.00;98832.53;8233860;28;20205;-56
2023/12/05 04:25:51;;;;;;;16.60;9.73;;;;;;;7.03;100.00;98828.50;8254348;28;20182;-55
2023/12/05 04:29:51;;;;;;;17.73;9.32;;;;;;;7.01;100.00;98835.88;8257453;28;20514;-56
2023/12/05 04:33:52;;;;;;;16.20;9.52;;;;;;;6.97;100.00;98834.50;8277842;28;20051;-57
2023/12/05 04:37:52;;;;;;;18.20;10.40;;;;;;;7.01;100.00;98835.88;8270332;28;20056;-54
2023/12/05 04:41:53;;;;;;;20.25;10.75;;;;;;;6.97;100.00;98829.16;8255965;28;20064;-55
2023/12/05 04:45:53;;;;;;;20.88;10.52;;;;;;;7.11;100.00;98844.66;8255925;28;20136;-54
2023/12/05 04:49:54;;;;;;;15.95;8.77;;;;;;;7.11;100.00;98841.13;8257959;28;20759;-54
2023/12/05 04:53:54;;;;;;;14.05;8.77;;;;;;;7.11;100.00;98846.50;8253681;28;20046;-54
2023/12/05 04:57:55;;;;;;;16.90;9.10;;;;;;;7.09;100.00;98838.63;8255918;28;20391;-55
2023/12/05 05:01:55;;;;;;;14.75;9.15;;;;;;;7.06;100.00;98844.31;8254905;28;20269;-55
2023/12/05 05:05:55;;;;;;;17.80;8.93;;;;;;;7.12;100.00;98843.66;8297593;28;20037;-57
2023/12/05 05:09:56;;;;;;;15.68;8.40;;;;;;;7.18;100.00;98853.78;8309482;28;20040;-55
2023/12/05 05:13:57;;;;;;;14.60;7.75;;;;;;;7.20;100.00;98859.81;8310328;28;20034;-52
2023/12/05 05:17:57;;;;;;;11.80;7.82;;;;;;;7.27;100.00;98862.72;8311623;28;20500;-56
2023/12/05 05:21:58;;;;;;;14.27;7.30;;;;;;;7.26;100.00;98859.19;8307574;28;20129;-57
2023/12/05 05:25:59;;;;;;;13.60;6.88;;;;;;;7.22;100.00;98870.41;8309510;28;20071;-57
2023/12/05 05:30:00;;;;;;;12.48;6.57;;;;;;;7.27;100.00;98874.31;8306647;28;20038;-54
2023/12/05 05:34:00;;;;;;;15.48;7.60;;;;;;;7.30;100.00;98874.00;8304921;28;20100;-57
2023/12/05 05:38:01;;;;;;;12.32;7.32;;;;;;;7.34;100.00;98872.66;8305724;28;20042;-55
2023/12/05 05:42:01;;;;;;;10.32;6.88;;;;;;;7.44;100.00;98873.38;8303509;28;20377;-56
2023/12/05 05:46:01;;;;;;;9.23;6.00;;;;;;;7.43;100.00;98873.53;8304610;28;20429;-55
2023/12/05 05:50:03;;;;;;;10.52;5.80;;;;;;;7.41;100.00;98887.13;8307217;28;20037;-55
2023/12/05 05:54:03;;;;;;;13.10;6.03;;;;;;;7.38;100.00;98876.72;8303300;28;20033;-56
2023/12/05 05:58:03;;;;;;;12.77;6.20;;;;;;;7.33;100.00;98888.97;8304431;28;20056;-58
2023/12/05 06:02:04;;;;;;;10.38;6.03;;;;;;;7.32;100.00;98884.59;8304302;28;20125;-58
2023/12/05 06:06:05;;;;;;;8.07;5.68;;;;;;;7.42;100.00;98888.84;8306719;28;20095;-57
2023/12/05 06:10:07;;;;;;;9.02;5.68;;;;;;;7.39;100.00;98886.47;8304725;28;20060;-56
2023/12/05 06:14:07;;;;;;;11.07;4.90;;;;;;;7.44;100.00;98892.19;8261558;28;20042;-56
2023/12/05 06:18:08;;;;;;;8.23;4.50;;;;;;;7.39;100.00;98886.47;8252743;28;20235;-55
2023/12/05 06:22:09;;;;;;;8.70;4.50;;;;;;;7.42;100.00;98888.84;8295129;28;20040;-58
2023/12/05 06:26:09;;;;;;;6.28;4.22;;;;;;;7.39;100.00;98894.53;8304862;28;20056;-57
2023/12/05 06:30:10;;;;;;;6.53;3.58;;;;;;;7.46;100.00;98900.97;8307523;28;20053;-56
2023/12/05 06:34:11;;;;;;;5.60;3.28;;;;;;;7.43;100.00;98901.28;8305561;28;20042;-59
2023/12/05 06:38:11;;;;;;;3.83;2.45;;;;;;;7.48;100.00;98912.38;8301731;28;20073;-56
2023/12/05 06:42:12;;;;;;;6.10;2.63;;;;;;;7.56;100.00;98907.03;8302869;28;20034;-58
2023/12/05 06:46:12;;;;;;;4.55;2.28;;;;;;;7.54;100.00;98914.41;8300041;28;20531;-54
2023/12/05 06:50:13;;;;;;;3.90;1.95;;;;;;;7.61;100.00;98931.63;8303607;28;20121;-55
2023/12/05 06:54:13;;;;;;;3.70;1.65;;;;;;;7.64;100.00;98925.91;8302463;28;20045;-58
2023/12/05 06:58:14;;;;;;;3.70;1.38;;;;;;;7.66;100.00;98929.28;8305579;28;20042;-59
2023/12/05 07:02:15;;;;;;;3.55;1.75;;;;;;;7.68;100.00;98940.72;8304691;28;20037;-59
2023/12/05 07:06:16;;;;;;;2.53;1.25;;;;;;;7.54;100.00;98941.31;8303208;28;20042;-57
2023/12/05 07:10:16;;;;;;;2.40;1.33;;;;;;;7.51;100.00;98944.31;8305475;28;20591;-57
2023/12/05 07:14:17;;;;;;;2.53;1.58;;;;;;;7.51;100.00;98956.94;8303263;28;20037;-56
2023/12/05 07:18:18;;;;;;;2.83;1.17;;;;;;;7.45;100.00;98962.94;8304014;28;20145;-57
2023/12/05 07:22:18;;;;;;;4.35;1.33;;;;;;;7.51;100.00;98970.38;8304664;28;20057;-58
2023/12/05 07:26:19;;;;;;;4.85;1.55;;;;;;;7.58;100.00;98968.72;8302393;28;20048;-57
2023/12/05 07:30:19;;;;;;;2.72;1.30;;;;;;;7.69;100.00;98971.97;8304287;28;20591;-58
2023/12/05 07:34:20;;;;;;;2.40;1.40;;;;;;;7.82;100.00;98967.03;8304154;28;20053;-58
2023/12/05 07:38:20;;;;;;;1.67;1.02;;;;;;;7.88;100.00;98984.34;8302893;28;20069;-58
2023/12/05 07:42:20;;;;;;;1.42;1.05;;;;;;;7.95;100.00;98988.94;8304914;28;20041;-58
2023/12/05 07:46:21;;;;;;;2.42;1.08;;;;;;;8.04;100.00;98993.34;8303330;28;20423;-56
2023/12/05 07:50:21;;;;;;;1.80;1.05;;;;;;;8.16;100.00;99006.50;8302635;28;20100;-57
2023/12/05 07:54:22;;;;;;;1.63;1.17;;;;;;;8.23;100.00;99002.19;8301310;28;20046;-58
2023/12/05 07:58:22;;;;;;;1.13;0.80;;;;;;;8.36;100.00;99002.56;8308195;28;20120;-58
2023/12/05 08:02:23;;;;;;;0.82;0.80;;;;;;;8.38;100.00;99008.66;8309910;28;20048;-58
2023/12/05 08:06:24;;;;;;;1.58;0.88;;;;;;;8.39;100.00;99018.41;8308463;28;20034;-57
2023/12/05 08:10:24;;;;;;;2.72;1.50;;;;;;;8.37;100.00;99025.78;8312639;28;20467;-54
2023/12/05 08:14:25;;;;;;;4.72;2.60;;;;;;;8.41;100.00;99021.75;8309510;28;20057;-54
2023/12/05 08:18:25;;;;;;;3.15;1.38;;;;;;;8.45;100.00;99023.13;8308621;28;20041;-52
2023/12/05 08:22:26;;;;;;;3.63;0.90;;;;;;;8.52;100.00;99024.16;8307025;28;20096;-53
2023/12/05 08:26:26;;;;;;;10.23;4.45;;;;;;;8.58;100.00;99028.88;8309941;28;20117;-57
2023/12/05 08:30:27;;;;;;;3.08;0.73;;;;;;;8.59;100.00;99020.66;8308621;28;20069;-53
2023/12/05 08:34:27;;;;;;;1.23;0.70;;;;;;;8.68;100.00;99035.81;8308058;28;20045;-53
2023/12/05 08:38:28;;;;;;;2.30;1.35;;;;;;;8.72;100.00;99047.13;8310276;28;20045;-53
2023/12/05 08:42:28;;;;;;;2.53;0.60;;;;;;;8.73;100.00;99041.56;8307222;28;20053;-54
2023/12/05 08:46:29;;;;;;;1.20;0.80;;;;;;;8.74;100.00;99039.69;8308501;28;20113;-53
2023/12/05 08:50:29;;;;;;;1.35;0.60;;;;;;;8.80;100.00;99044.44;8308973;28;20051;-54
2023/12/05 08:54:29;;;;;;;1.55;0.82;;;;;;;8.90;100.00;99045.09;8306288;28;20499;-54
2023/12/05 08:58:30;;;;;;;1.05;0.70;;;;;;;8.89;100.00;99048.81;8309155;28;20491;-53
2023/12/05 09:02:31;;;;;;;0.80;0.65;;;;;;;8.95;100.00;99043.63;8308408;28;20423;-56
2023/12/05 09:06:32;;;;;;;2.83;0.63;;;;;;;9.05;100.00;99054.22;8307624;28;20128;-54
2023/12/05 09:10:33;;;;;;;1.25;0.50;;;;;;;9.10;100.00;99057.28;8308307;28;20037;-54
2023/12/05 09:14:34;;;;;;;1.60;0.52;;;;;;;9.14;100.00;99058.63;8307178;28;20091;-54
2023/12/05 09:18:34;;;;;;;1.98;0.40;;;;;;;9.32;100.00;99062.00;8306989;28;20041;-54
2023/12/05 09:22:35;;;;;;;1.45;0.52;;;;;;;9.37;100.00;99065.88;8305352;28;20041;-54
2023/12/05 09:26:35;;;;;;;1.55;0.40;;;;;;;9.47;100.00;99076.50;8305647;28;20060;-54
2023/12/05 09:30:36;;;;;;;1.20;0.60;;;;;;;9.50;100.00;99076.16;8307208;28;20474;-54
2023/12/05 09:34:37;;;;;;;2.08;0.47;;;;;;;9.59;100.00;99080.56;8307277;28;20118;-54
2023/12/05 09:38:37;;;;;;;1.73;0.73;;;;;;;9.64;100.00;99078.19;8305885;28;20045;-54
2023/12/05 09:42:42;;;;;;;1.70;0.80;;;;;;;9.68;100.00;99084.94;8306499;28;20045;-54
2023/12/05 09:46:47;;;;;;;1.83;0.70;;;;;;;9.71;100.00;99087.28;8305960;28;20128;-54
2023/12/05 09:50:47;;;;;;;0.85;0.63;;;;;;;9.72;100.00;99080.88;8306218;28;20394;-55
2023/12/05 09:54:50;;;;;;;1.15;0.77;;;;;;;9.84;100.00;99090.31;8303846;28;20049;-55
2023/12/05 09:58:53;;;;;;;1.98;0.90;;;;;;;9.76;100.00;99093.03;8305092;28;20377;-55
2023/12/05 10:02:54;;;;;;;2.00;0.70;;;;;;;9.74;100.00;99089.66;8304866;28;20454;-55
2023/12/05 10:06:59;;;;;;;2.58;0.50;;;;;;;9.81;100.00;99096.03;8306767;28;20037;-55
2023/12/05 10:11:01;;;;;;;2.53;0.60;;;;;;;9.83;100.00;99104.81;8303412;28;20038;-55
2023/12/05 10:15:02;;;;;;;1.27;0.65;;;;;;;9.83;100.00;99099.44;8306608;28;20053;-56
2023/12/05 10:19:04;;;;;;;1.00;0.57;;;;;;;9.82;100.00;99103.13;8303664;28;20326;-55
2023/12/05 10:23:04;;;;;;;1.27;0.40;;;;;;;9.88;100.00;99103.28;8303222;28;20033;-55
2023/12/05 10:27:06;;;;;;;1.92;0.70;;;;;;;9.94;100.00;99096.34;8304934;28;20045;-56
2023/12/05 10:31:14;;;;;;;1.15;0.80;;;;;;;9.93;100.00;99100.06;8305046;28;20492;-55
2023/12/05 10:35:15;;;;;;;1.02;0.52;;;;;;;9.96;100.00;99105.13;8305737;28;20048;-57
2023/12/05 10:39:16;;;;;;;2.58;0.70;;;;;;;10.12;100.00;99098.91;8303996;28;20041;-57
2023/12/05 10:43:19;;;;;;;1.02;0.60;;;;;;;10.19;100.00;99100.75;8306373;28;20415;-56
2023/12/05 10:47:20;;;;;;;1.55;0.60;;;;;;;10.17;100.00;99105.47;8303887;28;20423;-56
2023/12/05 10:51:24;;;;;;;0.90;0.50;;;;;;;10.21;100.00;99101.41;8304409;28;20038;-57
2023/12/05 10:55:25;;;;;;;1.38;0.50;;;;;;;10.16;100.00;99106.50;8302071;28;20053;-57
2023/12/05 10:59:27;;;;;;;1.05;0.40;;;;;;;10.09;100.00;99110.06;8306652;28;20499;-57
2023/12/05 11:03:27;;;;;;;0.40;0.30;;;;;;;10.10;100.00;99093.69;8302561;28;20436;-56
2023/12/05 11:07:28;;;;;;;0.45;0.40;;;;;;;10.09;100.00;99110.88;8303281;28;20045;-59
2023/12/05 11:11:30;;;;;;;1.40;0.57;;;;;;;10.15;100.00;99109.38;8304556;28;20095;-58
2023/12/05 11:15:39;;;;;;;0.63;0.30;;;;;;;10.13;100.00;99112.22;8303533;28;20046;-58
2023/12/05 11:20:08;;;;;;;0.55;0.30;;;;;;;10.03;100.00;99115.06;8303044;28;20046;-57
2023/12/05 11:24:40;;;;;;;1.92;0.50;;;;;;;10.02;100.00;99115.25;8299154;28;20034;-55
2023/12/05 11:42:14;;;;;;;2.47;0.50;;;;;;;9.95;100.00;99122.34;8390163;27;20902;-56
2023/12/05 11:46:16;;;;;;;0.40;0.40;;;;;;;9.86;100.00;99126.91;8384193;27;20033;-56
2023/12/05 11:50:16;;;;;;;0.45;0.38;;;;;;;9.97;100.00;99123.00;8376313;27;20051;-56
2023/12/05 11:54:17;;;;;;;0.35;0.30;;;;;;;9.92;100.00;99130.78;8379758;28;20042;-57
2023/12/05 11:58:34;;;;;;;0.35;0.30;;;;;;;9.94;100.00;99134.16;8382742;27;20044;-58
2023/12/05 12:06:49;;;;;;;0.80;0.30;;;;;;;9.99;100.00;99132.66;8332417;27;20898;-56
2023/12/05 12:10:50;;;;;;;1.33;0.30;;;;;;;9.89;100.00;99131.13;8325685;28;20040;-57
2023/12/05 12:14:50;;;;;;;0.68;0.30;;;;;;;9.94;100.00;99134.16;8333147;28;20036;-55
2023/12/05 12:18:50;;;;;;;0.90;0.50;;;;;;;9.83;100.00;99143.44;8330401;28;20128;-56
2023/12/05 12:22:51;;;;;;;0.65;0.47;;;;;;;9.79;100.00;99138.56;8329214;28;20043;-56
2023/12/05 12:26:56;;;;;;;1.13;0.40;;;;;;;9.76;100.00;99142.44;8331016;28;20045;-55
2023/12/05 12:30:58;;;;;;;1.08;0.40;;;;;;;9.75;100.00;99150.69;8331014;28;20491;-56
2023/12/05 12:35:00;;;;;;;2.40;0.80;;;;;;;9.72;100.00;99145.63;8329619;28;20452;-56
2023/12/05 12:39:01;;;;;;;0.93;0.52;;;;;;;9.72;100.00;99151.88;8332942;28;20045;-56
2023/12/05 12:43:02;;;;;;;1.25;0.70;;;;;;;9.69;100.00;99151.38;8330544;28;20491;-57
2023/12/05 12:47:04;;;;;;;2.58;1.00;;;;;;;9.70;100.00;99161.16;8331568;28;20037;-56
2023/12/05 12:51:06;;;;;;;13.85;7.30;;;;;;;9.60;100.00;99164.00;8331474;28;20041;-58
2023/12/05 12:55:06;;;;;;;14.32;8.43;;;;;;;9.62;100.00;99161.16;8326315;28;20052;-59
2023/12/05 12:59:07;;;;;;;12.45;7.05;;;;;;;9.60;100.00;99166.72;8330926;28;20037;-57
2023/12/05 13:03:08;;;;;;;9.13;5.60;;;;;;;9.58;100.00;99170.59;8329122;28;20534;-58
2023/12/05 13:07:18;;;;;;;5.35;4.82;;;;;;;9.60;100.00;99171.25;8330119;28;20033;-56
2023/12/05 13:11:18;;;;;;;7.70;6.32;;;;;;;9.58;100.00;99170.59;8331315;28;20049;-56
2023/12/05 13:15:23;;;;;;;7.72;6.18;;;;;;;9.56;100.00;99178.00;8318956;28;20045;-55
2023/12/05 13:19:27;;;;;;;14.18;10.38;;;;;;;9.56;100.00;99178.84;8303785;28;20291;-56
2023/12/05 13:23:28;;;;;;;5.15;4.40;;;;;;;9.56;100.00;99188.78;8299419;28;20136;-56
2023/12/05 13:27:28;;;;;;;5.97;4.95;;;;;;;9.48;100.00;99192.31;8307554;28;20037;-56
2023/12/05 13:31:29;;;;;;;8.50;4.40;;;;;;;9.44;100.00;99187.44;8306065;28;20204;-57
2023/12/05 13:35:30;;;;;;;4.00;3.15;;;;;;;9.41;100.00;99187.75;8309135;28;20038;-56
2023/12/05 13:39:30;;;;;;;5.18;4.63;;;;;;;9.46;100.00;99188.13;8306604;28;20036;-57
2023/12/05 13:43:31;;;;;;;3.40;3.05;;;;;;;9.40;100.00;99191.47;8306883;28;20115;-58
2023/12/05 13:47:32;;;;;;;1.67;1.10;;;;;;;9.32;100.00;99196.84;8307735;28;20040;-57
2023/12/05 13:51:33;;;;;;;1.08;0.70;;;;;;;9.32;100.00;99199.53;8305151;28;20038;-57
2023/12/05 13:55:34;;;;;;;1.42;0.90;;;;;;;9.25;100.00;99202.06;8305584;28;20048;-60
2023/12/05 13:59:34;;;;;;;1.45;0.80;;;;;;;9.24;100.00;99210.31;8307711;28;20045;-60
2023/12/05 14:03:35;;;;;;;2.90;1.02;;;;;;;9.24;100.00;99221.09;8303633;28;20303;-59
2023/12/05 14:07:35;;;;;;;1.42;1.10;;;;;;;9.32;100.00;99234.59;8307924;28;20519;-57
2023/12/05 14:11:36;;;;;;;5.35;2.47;;;;;;;9.20;100.00;99236.75;8305600;28;20033;-54
2023/12/05 14:15:37;;;;;;;6.10;3.60;;;;;;;8.87;100.00;99250.25;8306724;28;20338;-56
2023/12/05 14:19:37;;;;;;;7.07;3.85;;;;;;;8.62;100.00;99251.13;8304790;28;20404;-56
2023/12/05 14:23:37;;;;;;;9.43;4.03;;;;;;;8.52;100.00;99259.31;8303523;28;20414;-57
2023/12/05 14:27:38;;;;;;;25.35;10.73;;;;;;;8.43;100.00;99270.19;8304333;28;20499;-57
2023/12/05 14:31:38;;;;;;;7.25;4.03;;;;;;;8.35;100.00;99283.59;8304231;28;20492;-57
2023/12/05 14:35:39;;;;;;;4.28;3.28;;;;;;;8.23;100.00;99292.94;8303505;28;20034;-56
2023/12/05 14:39:39;;;;;;;4.97;3.60;;;;;;;8.14;100.00;99294.66;8306749;28;20049;-56
2023/12/05 14:43:40;;;;;;;5.85;4.72;;;;;;;8.00;100.00;99298.72;8303791;28;20498;-56
2023/12/05 14:47:40;;;;;;;7.70;4.57;;;;;;;7.92;100.00;99312.13;8304252;28;20034;-56
2023/12/05 14:51:40;;;;;;;7.20;4.35;;;;;;;7.87;100.00;99319.78;8304061;28;20033;-56
2023/12/05 14:55:41;;;;;;;8.48;5.60;;;;;;;7.79;100.00;99322.44;8303650;28;20506;-56
2023/12/05 14:59:42;;;;;;;10.13;5.90;;;;;;;7.81;100.00;99328.47;8304743;28;20038;-56
2023/12/05 15:03:42;;;;;;;8.48;4.72;;;;;;;7.76;100.00;99333.50;8305682;28;20037;-56
2023/12/05 15:07:42;;;;;;;6.68;4.78;;;;;;;7.73;100.00;99341.00;8303963;28;20250;-56
2023/12/05 15:11:43;;;;;;;9.27;5.55;;;;;;;7.68;100.00;99346.84;8301109;28;20120;-56
2023/12/05 15:15:43;;;;;;;8.32;5.55;;;;;;;7.67;100.00;99355.91;8302253;28;20124;-56
2023/12/05 15:19:44;;;;;;;12.50;6.43;;;;;;;7.64;100.00;99366.97;8299029;28;20603;-56
2023/12/05 15:23:45;;;;;;;10.85;6.70;;;;;;;7.54;100.00;99374.22;8287911;28;20053;-55
2023/12/05 15:27:45;;;;;;;14.15;8.75;;;;;;;7.58;100.00;99372.94;8300393;28;20705;-56
2023/12/05 15:31:46;;;;;;;13.65;6.68;;;;;;;7.59;100.00;99380.00;8301591;28;20487;-56
2023/12/05 15:35:46;;;;;;;16.13;8.32;;;;;;;7.60;100.00;99395.13;8300051;28;20048;-56
2023/12/05 15:39:46;;;;;;;13.98;7.63;;;;;;;7.61;100.00;99404.06;8302545;28;20103;-57
2023/12/05 15:43:47;;;;;;;16.38;9.02;;;;;;;7.57;100.00;99403.50;8301542;28;20063;-57
2023/12/05 15:47:49;;;;;;;16.20;7.72;;;;;;;7.52;100.00;99413.03;8301606;28;20131;-58
2023/12/05 15:51:49;;;;;;;14.13;8.02;;;;;;;7.39;100.00;99399.94;8296967;28;20117;-57
2023/12/05 15:55:50;;;;;;;12.77;6.63;;;;;;;7.43;100.00;99425.53;8298246;28;20030;-57
2023/12/05 15:59:50;;;;;;;15.50;8.05;;;;;;;7.42;100.00;99431.03;8298878;28;20038;-58
2023/12/05 16:03:51;;;;;;;15.15;7.57;;;;;;;7.40;100.00;99433.03;8300658;28;20130;-57
2023/12/05 16:07:52;;;;;;;14.38;8.00;;;;;;;7.34;100.00;99447.91;8302686;28;20082;-57
2023/12/05 16:11:52;;;;;;;13.18;7.32;;;;;;;7.33;100.00;99453.44;8299298;28;20041;-57
2023/12/05 16:15:53;;;;;;;14.32;8.10;;;;;;;7.31;100.00;99450.88;8299186;28;20161;-57
2023/12/05 16:19:53;;;;;;;14.52;7.55;;;;;;;7.25;100.00;99459.53;8302924;28;20041;-58
2023/12/05 16:23:54;;;;;;;13.55;7.75;;;;;;;7.24;100.00;99471.28;8298019;28;20064;-58
2023/12/05 16:27:54;;;;;;;17.05;7.60;;;;;;;7.22;100.00;99484.00;8301776;28;20042;-56
2023/12/05 16:31:55;;;;;;;15.80;7.70;;;;;;;7.24;100.00;99481.19;8299648;28;20043;-57
2023/12/05 16:35:58;;;;;;;14.35;6.90;;;;;;;7.20;100.00;99486.00;8294665;28;20088;-56
2023/12/05 16:39:59;;;;;;;13.02;6.88;;;;;;;7.19;100.00;99495.06;8294350;28;20034;-56
2023/12/05 16:43:59;;;;;;;12.38;6.65;;;;;;;7.19;100.00;99495.06;8301323;28;20046;-56
2023/12/05 16:47:59;;;;;;;15.50;7.15;;;;;;;7.14;100.00;99508.06;8301733;28;20087;-57
2023/12/05 16:52:00;;;;;;;12.00;7.00;;;;;;;7.11;100.00;99502.97;8301112;28;20045;-57
2023/12/05 16:56:01;;;;;;;12.05;7.05;;;;;;;7.10;100.00;99511.19;8303952;28;20053;-57
2023/12/05 17:00:02;;;;;;;10.65;6.10;;;;;;;7.05;100.00;99516.97;8305865;28;20041;-57
2023/12/05 17:04:03;;;;;;;14.38;7.45;;;;;;;7.01;100.00;99529.00;8306299;28;20099;-56
2023/12/05 17:08:04;;;;;;;12.43;6.28;;;;;;;7.01;100.00;99517.41;8306512;28;20640;-56
2023/12/05 17:12:05;;;;;;;14.50;7.55;;;;;;;6.97;100.00;99530.31;8302914;28;20061;-57
2023/12/05 17:16:06;;;;;;;15.57;7.05;;;;;;;7.00;100.00;99538.06;8304706;28;20482;-57
2023/12/05 17:20:08;;;;;;;12.68;6.95;;;;;;;7.02;100.00;99541.44;8301095;28;20053;-55
2023/12/05 17:24:09;;;;;;;13.90;7.65;;;;;;;6.98;100.00;99542.72;8295113;28;20041;-54
2023/12/05 17:28:09;;;;;;;11.77;7.47;;;;;;;7.03;100.00;99559.28;8299307;28;20049;-56
2023/12/05 17:32:11;;;;;;;22.83;10.45;;;;;;;6.99;100.00;99568.63;8303865;28;20498;-56
2023/12/05 17:36:12;;;;;;;14.75;7.78;;;;;;;6.98;100.00;99569.59;8303286;28;20049;-56
2023/12/05 17:40:13;;;;;;;26.95;10.15;;;;;;;6.94;100.00;99568.19;8300436;28;20034;-57
2023/12/05 17:44:13;;;;;;;16.83;9.27;;;;;;;6.94;100.00;99570.88;8295331;28;20050;-56
2023/12/05 17:48:14;;;;;;;16.85;8.50;;;;;;;6.93;100.00;99574.56;8304326;28;20053;-56
2023/12/05 17:52:14;;;;;;;14.18;7.40;;;;;;;6.92;100.00;99588.97;8299914;28;20046;-56
2023/12/05 17:56:15;;;;;;;13.43;7.13;;;;;;;6.95;100.00;99577.13;8305301;28;20055;-56
2023/12/05 18:00:16;;;;;;;16.27;8.30;;;;;;;6.90;100.00;99584.75;8302806;28;20412;-57
2023/12/05 18:04:16;;;;;;;12.52;7.90;;;;;;;6.89;100.00;99589.25;8303216;28;20088;-58
2023/12/05 18:08:17;;;;;;;13.70;6.65;;;;;;;6.87;100.00;99607.38;8302609;28;20045;-58
2023/12/05 18:12:17;;;;;;;11.15;6.18;;;;;;;6.82;100.00;99608.75;8300456;28;20057;-57
2023/12/05 18:16:18;;;;;;;11.60;6.65;;;;;;;6.74;100.00;99606.75;8302463;28;20038;-58
2023/12/05 18:20:18;;;;;;;13.95;7.15;;;;;;;6.70;100.00;99620.59;8302210;28;20407;-57
2023/12/05 18:24:19;;;;;;;12.90;6.80;;;;;;;6.70;100.00;99624.16;8300916;28;20045;-57
2023/12/05 18:28:19;;;;;;;17.35;8.25;;;;;;;6.72;100.00;99619.50;8300936;28;20045;-57
2023/12/05 18:32:20;;;;;;;14.90;8.27;;;;;;;6.68;100.00;99623.41;8301411;28;20038;-57
2023/12/05 18:36:21;;;;;;;15.55;8.30;;;;;;;6.68;100.00;99628.78;8300305;28;20037;-58
2023/12/05 18:40:22;;;;;;;15.10;7.53;;;;;;;6.60;100.00;99631.34;8299751;28;20065;-57
2023/12/05 18:44:22;;;;;;;17.88;7.95;;;;;;;6.64;100.00;99632.75;8302226;28;20073;-58
2023/12/05 18:48:23;;;;;;;17.25;7.75;;;;;;;6.60;100.00;99641.22;8292867;28;20038;-60
2023/12/05 18:52:23;;;;;;;14.30;7.85;;;;;;;6.61;100.00;99650.97;8284298;28;20068;-59
2023/12/05 18:56:23;;;;;;;16.33;8.88;;;;;;;6.57;100.00;99639.66;8282663;28;20203;-58
2023/12/05 19:00:25;;;;;;;18.83;9.82;;;;;;;6.57;100.00;99653.09;8292749;28;20029;-58
2023/12/05 19:04:25;;;;;;;18.08;9.02;;;;;;;6.58;100.00;99670.03;8298731;28;20495;-57